Weather History for KAEL - October, 2013

Change the Weather History Date:

Tuesday, October 8, 2013

  Actual Average Record
Temperature  
Mean Temperature 60 °F -  
Max Temperature 75 °F 62 °F 86 °F (2010)
Min Temperature 46 °F 39 °F 21 °F (2000)
Degree Days  
Heating Degree Days 4    
Growing Degree Days 10 (Base 50)    
Moisture  
Dew Point 43 °F    
Average Humidity 55    
Maximum Humidity 87    
Minimum Humidity 27    
Precipitation  
Precipitation 0.00 in - - ()
Sea Level Pressure  
Sea Level Pressure 29.96 in    
Wind  
Wind Speed 10 mph (South)    
Max Wind Speed 22 mph    
Max Gust Speed 29 mph    
Visibility 10 miles    
Events      
Averages and records for this station are not official NWS values.
T = Trace of Precipitation, MM = Missing Value Source: NWS Daily Summary

Daily Weather History Graph

Daily Weather History Graph

Search for Another Location

Airport or City:

Trip Planner

Search our weather history database for the weather conditions in past years. The results will help you decide how hot, cold, wet, or windy it might be!

Date:

Astronomy

Oct. 08, 2013 Rise Set
Actual Time 7:19 AM CDT 6:41 PM CDT
Civil Twilight 6:50 AM CDT 7:10 PM CDT
Nautical Twilight 6:17 AM CDT 7:43 PM CDT
Astronomical Twilight 5:44 AM CDT 8:16 PM CDT
Moon 11:21 AM CDT (10/8) 9:11 PM CDT (10/8)
Length of Visible Light 12h 19m
Length of Day
11h 21m
Waxing Crescent, 16% of the Moon is Illuminated
Oct 8
Waxing Crescent
Oct 11
First Quarter
Oct 18
Full
Oct 26
Last Quarter
Nov 3
New

Hourly Weather History & Observations

Time (CDT) Temp. Windchill Dew Point Humidity Pressure Visibility Wind Dir Wind Speed Gust Speed Precip Events Conditions
12:10 AM 53.6 °F - 46.4 °F 77% 30.00 in 10.0 mi South 8.1 mph - N/A   Clear
12:31 AM 53.6 °F - 46.4 °F 77% 30.00 in 10.0 mi South 6.9 mph - N/A   Clear
12:50 AM 53.6 °F - 46.4 °F 77% 29.99 in 10.0 mi South 8.1 mph - N/A   Clear
1:10 AM 53.6 °F - 46.4 °F 77% 30.00 in 10.0 mi South 6.9 mph - N/A   Clear
1:31 AM 53.6 °F - 46.4 °F 77% 30.00 in 10.0 mi SSE 6.9 mph - N/A   Clear
1:50 AM 51.8 °F - 44.6 °F 76% 30.00 in 10.0 mi SSE 6.9 mph - N/A   Clear
2:10 AM 53.6 °F - 46.4 °F 77% 30.00 in 10.0 mi SSE 6.9 mph - N/A   Clear
2:31 AM 51.8 °F - 46.4 °F 82% 30.01 in 10.0 mi South 6.9 mph - N/A   Clear
2:50 AM 51.8 °F - 46.4 °F 82% 30.00 in 10.0 mi SSE 6.9 mph - N/A   Clear
3:10 AM 51.8 °F - 44.6 °F 76% 29.99 in 10.0 mi SSE 5.8 mph - N/A   Clear
3:31 AM 51.8 °F - 44.6 °F 76% 30.00 in 10.0 mi South 5.8 mph - N/A   Clear
3:50 AM 50.0 °F - 44.6 °F 82% 29.99 in 10.0 mi South 5.8 mph - N/A   Clear
4:10 AM 48.2 °F - 44.6 °F 87% 29.99 in 10.0 mi SSE 5.8 mph - N/A   Clear
4:31 AM 48.2 °F - 44.6 °F 87% 29.99 in 10.0 mi South 4.6 mph - N/A   Clear
4:50 AM 48.2 °F - 44.6 °F 87% 29.98 in 10.0 mi South 5.8 mph - N/A   Clear
5:11 AM 48.2 °F - 44.6 °F 87% 29.98 in 10.0 mi South 4.6 mph - N/A   Clear
5:31 AM 48.2 °F - 42.8 °F 82% 29.98 in 10.0 mi South 5.8 mph - N/A   Clear
5:50 AM 48.2 °F - 42.8 °F 82% 29.98 in 10.0 mi South 5.8 mph - N/A   Clear
6:11 AM 48.2 °F - 42.8 °F 82% 29.99 in 10.0 mi South 4.6 mph - N/A   Clear
6:31 AM 48.2 °F - 42.8 °F 82% 29.99 in 10.0 mi SSE 5.8 mph - N/A   Clear
6:50 AM 46.4 °F 44.3 °F 42.8 °F 87% 29.99 in 10.0 mi South 4.6 mph - N/A   Clear
7:11 AM 48.2 °F - 42.8 °F 82% 29.99 in 10.0 mi South 6.9 mph - N/A   Clear
7:31 AM 48.2 °F - 42.8 °F 82% 29.99 in 10.0 mi South 6.9 mph - N/A   Clear
7:50 AM 48.2 °F - 42.8 °F 82% 29.99 in 10.0 mi South 6.9 mph - N/A   Clear
8:11 AM 51.8 °F - 42.8 °F 71% 29.99 in 10.0 mi South 6.9 mph - N/A   Clear
8:30 AM 51.8 °F - 42.8 °F 71% 29.99 in 10.0 mi South 6.9 mph - N/A   Clear
8:50 AM 53.6 °F - 42.8 °F 67% 29.99 in 10.0 mi South 9.2 mph - N/A   Clear
9:11 AM 55.4 °F - 44.6 °F 67% 29.98 in 10.0 mi South 9.2 mph - N/A   Clear
9:31 AM 59.0 °F - 44.6 °F 59% 29.98 in 10.0 mi South 11.5 mph 17.3 mph N/A   Clear
9:51 AM 60.8 °F - 42.8 °F 52% 29.97 in 10.0 mi South 12.7 mph 18.4 mph N/A   Clear
10:10 AM 62.6 °F - 42.8 °F 48% 29.97 in 10.0 mi South 10.4 mph 19.6 mph N/A   Clear
10:30 AM 64.4 °F - 44.6 °F 49% 29.97 in 10.0 mi South 12.7 mph 18.4 mph N/A   Clear
10:51 AM 64.4 °F - 42.8 °F 45% 29.97 in 10.0 mi SSW 11.5 mph 18.4 mph N/A   Clear
11:10 AM 66.2 °F - 41.0 °F 40% 29.96 in 10.0 mi SSW 13.8 mph 20.7 mph N/A   Clear
11:30 AM 69.8 °F - 39.2 °F 33% 29.96 in 10.0 mi SSW 12.7 mph 20.7 mph N/A   Clear
11:51 AM 69.8 °F - 37.4 °F 31% 29.95 in 10.0 mi South 10.4 mph 25.3 mph N/A   Clear
12:10 PM 71.6 °F - 39.2 °F 31% 29.95 in 10.0 mi South 16.1 mph 24.2 mph N/A   Clear
12:30 PM 71.6 °F - 39.2 °F 31% 29.94 in 10.0 mi South 16.1 mph 21.9 mph N/A   Clear
12:51 PM 71.6 °F - 39.2 °F 31% 29.95 in 10.0 mi South 12.7 mph 25.3 mph N/A   Clear
1:10 PM 71.6 °F - 41.0 °F 33% - 10.0 mi South 11.5 mph 20.7 mph N/A   Clear
1:31 PM 73.4 °F - 39.2 °F 29% 29.93 in 10.0 mi SSW 11.5 mph 21.9 mph N/A   Clear
1:51 PM 73.4 °F - 39.2 °F 29% 29.92 in 10.0 mi South 12.7 mph 25.3 mph N/A   Clear
2:10 PM 75.2 °F - 39.2 °F 27% 29.91 in 10.0 mi South 21.9 mph 25.3 mph N/A   Clear
2:31 PM 75.2 °F - 39.2 °F 27% 29.91 in 10.0 mi South 15.0 mph 23.0 mph N/A   Clear
2:51 PM 75.2 °F - 39.2 °F 27% 29.91 in 10.0 mi South 16.1 mph 28.8 mph N/A   Clear
3:10 PM 75.2 °F - 39.2 °F 27% 29.91 in 10.0 mi South 18.4 mph 28.8 mph N/A   Clear
3:31 PM 75.2 °F - 39.2 °F 27% 29.90 in 10.0 mi South 17.3 mph 26.5 mph N/A   Clear
3:51 PM 75.2 °F - 39.2 °F 27% 29.90 in 10.0 mi South 17.3 mph 26.5 mph N/A   Clear
4:10 PM 75.2 °F - 39.2 °F 27% 29.90 in 10.0 mi South 18.4 mph 26.5 mph N/A   Clear
4:31 PM 75.2 °F - 39.2 °F 27% 29.90 in 10.0 mi South 15.0 mph 25.3 mph N/A   Clear
4:51 PM 73.4 °F - 39.2 °F 29% 29.90 in 10.0 mi South 13.8 mph 20.7 mph N/A   Clear
5:10 PM 75.2 °F - 41.0 °F 29% 29.90 in 10.0 mi South 11.5 mph - N/A   Clear
5:31 PM 73.4 °F - 42.8 °F 33% 29.90 in 10.0 mi South 17.3 mph 23.0 mph N/A   Clear
5:51 PM 71.6 °F - 42.8 °F 35% 29.90 in 10.0 mi South 15.0 mph 21.9 mph N/A   Clear
6:10 PM 71.6 °F - 42.8 °F 35% 29.90 in 10.0 mi South 15.0 mph 19.6 mph N/A   Clear
6:31 PM 69.8 °F - 42.8 °F 38% 29.91 in 10.0 mi South 11.5 mph 21.9 mph N/A   Clear
6:51 PM 69.8 °F - 42.8 °F 38% 29.91 in 10.0 mi South 13.8 mph 21.9 mph N/A   Clear
7:10 PM 68.0 °F - 44.6 °F 43% 29.91 in 10.0 mi South 11.5 mph 18.4 mph N/A   Clear
7:31 PM 68.0 °F - 44.6 °F 43% 29.92 in 10.0 mi South 10.4 mph - N/A   Clear
7:51 PM 68.0 °F - 44.6 °F 43% 29.93 in 10.0 mi South 16.1 mph 21.9 mph N/A   Clear
8:10 PM 66.2 °F - 44.6 °F 46% 29.93 in 10.0 mi South 12.7 mph 19.6 mph N/A   Clear
8:31 PM 68.0 °F - 44.6 °F 43% 29.94 in 10.0 mi South 13.8 mph 23.0 mph N/A   Clear
8:51 PM 66.2 °F - 44.6 °F 46% 29.94 in 10.0 mi South 12.7 mph 25.3 mph N/A   Clear
9:10 PM 66.2 °F - 44.6 °F 46% 29.95 in 10.0 mi South 16.1 mph 24.2 mph N/A   Clear
9:31 PM 66.2 °F - 44.6 °F 46% 29.95 in 10.0 mi South 15.0 mph 23.0 mph N/A   Clear
9:51 PM 64.4 °F - 44.6 °F 49% 29.96 in 10.0 mi South 15.0 mph 23.0 mph N/A   Clear
10:10 PM 64.4 °F - 44.6 °F 49% 29.96 in 10.0 mi South 16.1 mph 23.0 mph N/A   Clear
10:31 PM 64.4 °F - 46.4 °F 52% 29.97 in 10.0 mi South 12.7 mph 19.6 mph N/A   Clear
10:51 PM 64.4 °F - 46.4 °F 52% 29.97 in 10.0 mi South 16.1 mph 23.0 mph N/A   Clear
11:10 PM 62.6 °F - 46.4 °F 55% 29.98 in 10.0 mi South 11.5 mph 19.6 mph N/A   Clear
11:31 PM 62.6 °F - 46.4 °F 55% 29.98 in 10.0 mi South 11.5 mph 20.7 mph N/A   Clear
11:51 PM 62.6 °F - 46.4 °F 55% 29.99 in 10.0 mi South 9.2 mph - N/A   Clear